sensor_id;sensor_type;location;lat;lon;timestamp;P1;durP1;ratioP1;P2;durP2;ratioP2
37877;SDS011;23715;53.652;8.516;2022-08-19T00:04:39;20.23;;;19.05;;
37877;SDS011;23715;53.652;8.516;2022-08-19T00:09:39;20.33;;;19.10;;
37877;SDS011;23715;53.652;8.516;2022-08-19T00:19:40;19.10;;;18.00;;
37877;SDS011;23715;53.652;8.516;2022-08-19T00:24:40;20.32;;;19.15;;
37877;SDS011;23715;53.652;8.516;2022-08-19T00:29:42;20.37;;;19.17;;
37877;SDS011;23715;53.652;8.516;2022-08-19T00:34:42;19.35;;;18.30;;
37877;SDS011;23715;53.652;8.516;2022-08-19T00:39:43;20.40;;;19.20;;
37877;SDS011;23715;53.652;8.516;2022-08-19T00:49:45;19.23;;;18.12;;
37877;SDS011;23715;53.652;8.516;2022-08-19T00:54:50;19.57;;;18.37;;
37877;SDS011;23715;53.652;8.516;2022-08-19T00:59:52;19.57;;;18.48;;
37877;SDS011;23715;53.652;8.516;2022-08-19T01:04:54;19.48;;;18.27;;
37877;SDS011;23715;53.652;8.516;2022-08-19T01:09:57;19.73;;;18.50;;
37877;SDS011;23715;53.652;8.516;2022-08-19T01:14:59;20.72;;;19.23;;
37877;SDS011;23715;53.652;8.516;2022-08-19T01:20:00;20.08;;;18.87;;
37877;SDS011;23715;53.652;8.516;2022-08-19T01:25:00;19.60;;;18.48;;
37877;SDS011;23715;53.652;8.516;2022-08-19T01:30:01;20.30;;;19.10;;
37877;SDS011;23715;53.652;8.516;2022-08-19T01:35:03;19.15;;;18.15;;
37877;SDS011;23715;53.652;8.516;2022-08-19T01:40:04;19.62;;;18.52;;
37877;SDS011;23715;53.652;8.516;2022-08-19T01:45:06;21.17;;;19.73;;
37877;SDS011;23715;53.652;8.516;2022-08-19T01:50:08;19.95;;;18.85;;
37877;SDS011;23715;53.652;8.516;2022-08-19T01:55:11;19.77;;;18.57;;
37877;SDS011;23715;53.652;8.516;2022-08-19T02:00:18;19.42;;;18.23;;
37877;SDS011;23715;53.652;8.516;2022-08-19T02:05:20;20.10;;;18.70;;
37877;SDS011;23715;53.652;8.516;2022-08-19T02:10:21;19.70;;;18.65;;
37877;SDS011;23715;53.652;8.516;2022-08-19T02:15:22;23.00;;;21.60;;
37877;SDS011;23715;53.652;8.516;2022-08-19T02:20:23;23.20;;;21.70;;
37877;SDS011;23715;53.652;8.516;2022-08-19T02:25:23;21.73;;;20.43;;
37877;SDS011;23715;53.652;8.516;2022-08-19T02:30:24;20.37;;;19.15;;
37877;SDS011;23715;53.652;8.516;2022-08-19T02:35:25;21.37;;;20.08;;
37877;SDS011;23715;53.652;8.516;2022-08-19T02:40:26;20.52;;;19.32;;
37877;SDS011;23715;53.652;8.516;2022-08-19T02:45:31;20.20;;;18.93;;
37877;SDS011;23715;53.652;8.516;2022-08-19T02:50:33;21.57;;;20.00;;
37877;SDS011;23715;53.652;8.516;2022-08-19T02:55:42;20.68;;;19.57;;
37877;SDS011;23715;53.652;8.516;2022-08-19T03:00:47;20.97;;;19.55;;
37877;SDS011;23715;53.652;8.516;2022-08-19T03:05:49;20.65;;;19.55;;
37877;SDS011;23715;53.652;8.516;2022-08-19T03:10:49;20.02;;;18.92;;
37877;SDS011;23715;53.652;8.516;2022-08-19T03:15:51;20.45;;;19.15;;
37877;SDS011;23715;53.652;8.516;2022-08-19T03:20:52;21.95;;;20.55;;
37877;SDS011;23715;53.652;8.516;2022-08-19T03:25:53;22.30;;;21.05;;
37877;SDS011;23715;53.652;8.516;2022-08-19T03:30:55;21.33;;;20.02;;
37877;SDS011;23715;53.652;8.516;2022-08-19T03:36:08;21.35;;;20.15;;
37877;SDS011;23715;53.652;8.516;2022-08-19T03:41:13;21.05;;;19.50;;
37877;SDS011;23715;53.652;8.516;2022-08-19T03:46:17;21.40;;;20.20;;
37877;SDS011;23715;53.652;8.516;2022-08-19T03:51:24;21.40;;;20.08;;
37877;SDS011;23715;53.652;8.516;2022-08-19T03:56:29;22.48;;;21.12;;
37877;SDS011;23715;53.652;8.516;2022-08-19T04:01:30;21.60;;;20.20;;
37877;SDS011;23715;53.652;8.516;2022-08-19T04:06:32;21.20;;;19.80;;
37877;SDS011;23715;53.652;8.516;2022-08-19T04:11:35;21.42;;;20.12;;
37877;SDS011;23715;53.652;8.516;2022-08-19T04:16:40;23.25;;;21.95;;
37877;SDS011;23715;53.652;8.516;2022-08-19T04:21:43;22.60;;;21.30;;
37877;SDS011;23715;53.652;8.516;2022-08-19T04:26:46;21.97;;;20.57;;
37877;SDS011;23715;53.652;8.516;2022-08-19T04:31:48;21.90;;;20.55;;
37877;SDS011;23715;53.652;8.516;2022-08-19T04:36:49;22.52;;;21.25;;
37877;SDS011;23715;53.652;8.516;2022-08-19T04:41:51;21.73;;;20.48;;
37877;SDS011;23715;53.652;8.516;2022-08-19T04:47:10;23.32;;;21.82;;
37877;SDS011;23715;53.652;8.516;2022-08-19T04:52:12;21.75;;;20.55;;
37877;SDS011;23715;53.652;8.516;2022-08-19T04:57:13;24.27;;;22.07;;
37877;SDS011;23715;53.652;8.516;2022-08-19T05:02:13;23.10;;;21.60;;
37877;SDS011;23715;53.652;8.516;2022-08-19T05:07:13;23.30;;;21.80;;
37877;SDS011;23715;53.652;8.516;2022-08-19T05:12:14;23.57;;;22.00;;
37877;SDS011;23715;53.652;8.516;2022-08-19T05:17:15;22.40;;;20.90;;
37877;SDS011;23715;53.652;8.516;2022-08-19T05:27:33;23.40;;;21.77;;
37877;SDS011;23715;53.652;8.516;2022-08-19T05:37:34;24.67;;;22.70;;
37877;SDS011;23715;53.652;8.516;2022-08-19T05:42:34;24.40;;;22.82;;
37877;SDS011;23715;53.652;8.516;2022-08-19T05:47:34;24.40;;;22.93;;
37877;SDS011;23715;53.652;8.516;2022-08-19T05:52:36;24.25;;;22.60;;
37877;SDS011;23715;53.652;8.516;2022-08-19T05:57:37;22.87;;;21.57;;
37877;SDS011;23715;53.652;8.516;2022-08-19T06:02:38;22.02;;;20.52;;
37877;SDS011;23715;53.652;8.516;2022-08-19T06:07:39;21.55;;;20.25;;
37877;SDS011;23715;53.652;8.516;2022-08-19T06:12:40;21.45;;;20.15;;
37877;SDS011;23715;53.652;8.516;2022-08-19T06:17:40;21.37;;;20.08;;
37877;SDS011;23715;53.652;8.516;2022-08-19T06:22:43;22.00;;;20.52;;
37877;SDS011;23715;53.652;8.516;2022-08-19T06:27:45;22.42;;;20.80;;
37877;SDS011;23715;53.652;8.516;2022-08-19T06:32:45;22.40;;;20.90;;
37877;SDS011;23715;53.652;8.516;2022-08-19T06:42:45;22.15;;;20.82;;
37877;SDS011;23715;53.652;8.516;2022-08-19T06:47:49;22.40;;;21.00;;
37877;SDS011;23715;53.652;8.516;2022-08-19T06:52:52;21.70;;;20.27;;
37877;SDS011;23715;53.652;8.516;2022-08-19T06:57:53;21.27;;;19.92;;
37877;SDS011;23715;53.652;8.516;2022-08-19T07:02:53;20.82;;;19.62;;
37877;SDS011;23715;53.652;8.516;2022-08-19T07:07:54;21.60;;;20.00;;
37877;SDS011;23715;53.652;8.516;2022-08-19T07:12:55;22.55;;;20.75;;
37877;SDS011;23715;53.652;8.516;2022-08-19T07:17:55;21.48;;;20.17;;
37877;SDS011;23715;53.652;8.516;2022-08-19T07:27:56;19.98;;;18.77;;
37877;SDS011;23715;53.652;8.516;2022-08-19T07:32:56;19.85;;;18.65;;
37877;SDS011;23715;53.652;8.516;2022-08-19T07:37:57;20.88;;;19.40;;
37877;SDS011;23715;53.652;8.516;2022-08-19T07:42:59;20.25;;;18.67;;
37877;SDS011;23715;53.652;8.516;2022-08-19T07:48:00;20.35;;;19.05;;
37877;SDS011;23715;53.652;8.516;2022-08-19T07:53:00;19.30;;;18.20;;
37877;SDS011;23715;53.652;8.516;2022-08-19T07:58:00;20.92;;;19.52;;
37877;SDS011;23715;53.652;8.516;2022-08-19T08:03:03;18.85;;;17.57;;
37877;SDS011;23715;53.652;8.516;2022-08-19T08:13:21;20.60;;;19.50;;
37877;SDS011;23715;53.652;8.516;2022-08-19T08:18:22;20.32;;;18.92;;
37877;SDS011;23715;53.652;8.516;2022-08-19T08:23:23;17.90;;;16.70;;
37877;SDS011;23715;53.652;8.516;2022-08-19T08:28:25;19.87;;;18.70;;
37877;SDS011;23715;53.652;8.516;2022-08-19T08:33:27;18.15;;;16.95;;
37877;SDS011;23715;53.652;8.516;2022-08-19T08:38:28;16.02;;;15.13;;
37877;SDS011;23715;53.652;8.516;2022-08-19T08:43:35;17.02;;;15.93;;
37877;SDS011;23715;53.652;8.516;2022-08-19T08:48:40;20.32;;;18.62;;
37877;SDS011;23715;53.652;8.516;2022-08-19T08:53:45;18.65;;;17.55;;
37877;SDS011;23715;53.652;8.516;2022-08-19T09:04:03;18.85;;;17.65;;
37877;SDS011;23715;53.652;8.516;2022-08-19T09:09:09;18.75;;;17.35;;
37877;SDS011;23715;53.652;8.516;2022-08-19T09:14:23;19.12;;;17.98;;
37877;SDS011;23715;53.652;8.516;2022-08-19T09:19:21;18.67;;;17.57;;
37877;SDS011;23715;53.652;8.516;2022-08-19T09:24:21;18.50;;;17.37;;
37877;SDS011;23715;53.652;8.516;2022-08-19T09:29:22;19.27;;;18.00;;
37877;SDS011;23715;53.652;8.516;2022-08-19T09:34:23;20.90;;;19.50;;
37877;SDS011;23715;53.652;8.516;2022-08-19T09:39:24;20.90;;;19.60;;
37877;SDS011;23715;53.652;8.516;2022-08-19T09:44:24;16.87;;;15.90;;
37877;SDS011;23715;53.652;8.516;2022-08-19T09:49:25;18.45;;;17.37;;
37877;SDS011;23715;53.652;8.516;2022-08-19T09:54:26;12.45;;;11.60;;
37877;SDS011;23715;53.652;8.516;2022-08-19T09:59:27;11.93;;;11.00;;
37877;SDS011;23715;53.652;8.516;2022-08-19T10:04:28;13.80;;;12.45;;
37877;SDS011;23715;53.652;8.516;2022-08-19T10:09:30;9.70;;;9.10;;
37877;SDS011;23715;53.652;8.516;2022-08-19T10:14:31;9.18;;;8.58;;
37877;SDS011;23715;53.652;8.516;2022-08-19T10:19:31;9.87;;;8.90;;
37877;SDS011;23715;53.652;8.516;2022-08-19T10:24:34;9.50;;;8.80;;
37877;SDS011;23715;53.652;8.516;2022-08-19T10:34:35;9.15;;;8.55;;
37877;SDS011;23715;53.652;8.516;2022-08-19T10:39:36;8.10;;;7.67;;
37877;SDS011;23715;53.652;8.516;2022-08-19T10:44:37;11.08;;;10.48;;
37877;SDS011;23715;53.652;8.516;2022-08-19T10:49:37;10.90;;;10.10;;
37877;SDS011;23715;53.652;8.516;2022-08-19T10:54:39;9.45;;;8.60;;
37877;SDS011;23715;53.652;8.516;2022-08-19T10:59:58;8.85;;;8.35;;
37877;SDS011;23715;53.652;8.516;2022-08-19T11:04:58;9.48;;;8.78;;
37877;SDS011;23715;53.652;8.516;2022-08-19T11:09:59;9.10;;;8.50;;
37877;SDS011;23715;53.652;8.516;2022-08-19T11:15:01;9.43;;;8.58;;
37877;SDS011;23715;53.652;8.516;2022-08-19T11:20:02;9.05;;;8.35;;
37877;SDS011;23715;53.652;8.516;2022-08-19T11:25:04;8.68;;;7.85;;
37877;SDS011;23715;53.652;8.516;2022-08-19T11:30:06;9.08;;;8.48;;
37877;SDS011;23715;53.652;8.516;2022-08-19T11:35:07;9.05;;;8.45;;
37877;SDS011;23715;53.652;8.516;2022-08-19T11:40:09;8.53;;;7.83;;
37877;SDS011;23715;53.652;8.516;2022-08-19T11:45:10;8.88;;;8.13;;
37877;SDS011;23715;53.652;8.516;2022-08-19T11:50:12;10.48;;;9.60;;
37877;SDS011;23715;53.652;8.516;2022-08-19T11:55:13;10.63;;;9.93;;
37877;SDS011;23715;53.652;8.516;2022-08-19T12:00:14;8.95;;;8.40;;
37877;SDS011;23715;53.652;8.516;2022-08-19T12:05:15;9.68;;;8.93;;
37877;SDS011;23715;53.652;8.516;2022-08-19T12:10:16;8.70;;;8.03;;
37877;SDS011;23715;53.652;8.516;2022-08-19T12:15:16;9.78;;;9.18;;
37877;SDS011;23715;53.652;8.516;2022-08-19T12:20:17;9.80;;;9.00;;
37877;SDS011;23715;53.652;8.516;2022-08-19T12:30:17;10.15;;;9.55;;
37877;SDS011;23715;53.652;8.516;2022-08-19T12:35:18;10.65;;;10.00;;
37877;SDS011;23715;53.652;8.516;2022-08-19T12:40:19;10.65;;;10.03;;
37877;SDS011;23715;53.652;8.516;2022-08-19T12:45:19;9.60;;;9.03;;
37877;SDS011;23715;53.652;8.516;2022-08-19T12:50:24;10.10;;;9.38;;
37877;SDS011;23715;53.652;8.516;2022-08-19T12:55:23;10.65;;;9.80;;
37877;SDS011;23715;53.652;8.516;2022-08-19T13:00:23;10.43;;;9.50;;
37877;SDS011;23715;53.652;8.516;2022-08-19T13:05:25;8.98;;;8.38;;
37877;SDS011;23715;53.652;8.516;2022-08-19T13:10:32;8.50;;;7.83;;
37877;SDS011;23715;53.652;8.516;2022-08-19T13:15:39;10.63;;;9.83;;
37877;SDS011;23715;53.652;8.516;2022-08-19T13:20:36;9.23;;;8.68;;
37877;SDS011;23715;53.652;8.516;2022-08-19T13:25:38;9.33;;;8.73;;
37877;SDS011;23715;53.652;8.516;2022-08-19T13:30:39;9.40;;;8.68;;
37877;SDS011;23715;53.652;8.516;2022-08-19T13:35:58;9.05;;;8.43;;
37877;SDS011;23715;53.652;8.516;2022-08-19T13:41:03;8.48;;;7.90;;
37877;SDS011;23715;53.652;8.516;2022-08-19T13:46:07;8.88;;;8.38;;
37877;SDS011;23715;53.652;8.516;2022-08-19T13:51:06;8.40;;;7.90;;
37877;SDS011;23715;53.652;8.516;2022-08-19T13:56:10;10.15;;;9.55;;
37877;SDS011;23715;53.652;8.516;2022-08-19T14:01:12;10.10;;;9.58;;
37877;SDS011;23715;53.652;8.516;2022-08-19T14:06:14;11.78;;;11.05;;
37877;SDS011;23715;53.652;8.516;2022-08-19T14:11:15;10.65;;;9.95;;
37877;SDS011;23715;53.652;8.516;2022-08-19T14:16:15;11.53;;;10.90;;
37877;SDS011;23715;53.652;8.516;2022-08-19T14:21:17;13.70;;;11.83;;
37877;SDS011;23715;53.652;8.516;2022-08-19T14:26:21;12.63;;;11.83;;
37877;SDS011;23715;53.652;8.516;2022-08-19T14:31:22;11.88;;;11.18;;
37877;SDS011;23715;53.652;8.516;2022-08-19T14:36:23;11.87;;;11.27;;
37877;SDS011;23715;53.652;8.516;2022-08-19T14:41:24;10.70;;;10.00;;
37877;SDS011;23715;53.652;8.516;2022-08-19T14:46:26;11.73;;;11.12;;
37877;SDS011;23715;53.652;8.516;2022-08-19T14:51:28;11.80;;;11.00;;
37877;SDS011;23715;53.652;8.516;2022-08-19T14:56:28;12.45;;;11.85;;
37877;SDS011;23715;53.652;8.516;2022-08-19T15:01:29;12.75;;;12.05;;
37877;SDS011;23715;53.652;8.516;2022-08-19T15:06:30;13.25;;;12.53;;
37877;SDS011;23715;53.652;8.516;2022-08-19T15:11:30;13.10;;;12.40;;
37877;SDS011;23715;53.652;8.516;2022-08-19T15:16:32;13.88;;;13.00;;
37877;SDS011;23715;53.652;8.516;2022-08-19T15:21:33;14.50;;;13.68;;
37877;SDS011;23715;53.652;8.516;2022-08-19T15:26:34;13.85;;;12.93;;
37877;SDS011;23715;53.652;8.516;2022-08-19T15:31:35;14.38;;;13.40;;
37877;SDS011;23715;53.652;8.516;2022-08-19T15:36:36;13.53;;;12.63;;
37877;SDS011;23715;53.652;8.516;2022-08-19T15:41:36;12.75;;;11.90;;
37877;SDS011;23715;53.652;8.516;2022-08-19T15:46:39;12.70;;;11.83;;
37877;SDS011;23715;53.652;8.516;2022-08-19T15:51:41;12.78;;;11.97;;
37877;SDS011;23715;53.652;8.516;2022-08-19T15:56:43;11.65;;;10.95;;
37877;SDS011;23715;53.652;8.516;2022-08-19T16:01:45;11.85;;;11.15;;
37877;SDS011;23715;53.652;8.516;2022-08-19T16:07:03;12.18;;;11.38;;
37877;SDS011;23715;53.652;8.516;2022-08-19T16:12:05;13.10;;;12.03;;
37877;SDS011;23715;53.652;8.516;2022-08-19T16:17:07;11.73;;;11.03;;
37877;SDS011;23715;53.652;8.516;2022-08-19T16:22:09;11.33;;;10.72;;
37877;SDS011;23715;53.652;8.516;2022-08-19T16:27:10;10.98;;;10.18;;
37877;SDS011;23715;53.652;8.516;2022-08-19T16:32:10;12.65;;;11.80;;
37877;SDS011;23715;53.652;8.516;2022-08-19T16:37:11;11.97;;;11.08;;
37877;SDS011;23715;53.652;8.516;2022-08-19T16:42:12;13.43;;;12.73;;
37877;SDS011;23715;53.652;8.516;2022-08-19T16:47:13;13.62;;;12.88;;
37877;SDS011;23715;53.652;8.516;2022-08-19T16:52:16;12.03;;;11.33;;
37877;SDS011;23715;53.652;8.516;2022-08-19T16:57:17;13.22;;;12.28;;
37877;SDS011;23715;53.652;8.516;2022-08-19T17:02:22;13.68;;;12.82;;
37877;SDS011;23715;53.652;8.516;2022-08-19T17:07:22;13.62;;;12.73;;
37877;SDS011;23715;53.652;8.516;2022-08-19T17:17:23;12.53;;;11.90;;
37877;SDS011;23715;53.652;8.516;2022-08-19T17:22:23;13.43;;;12.25;;
37877;SDS011;23715;53.652;8.516;2022-08-19T17:27:25;11.75;;;10.75;;
37877;SDS011;23715;53.652;8.516;2022-08-19T17:32:26;11.85;;;10.95;;
37877;SDS011;23715;53.652;8.516;2022-08-19T17:37:26;11.65;;;10.93;;
37877;SDS011;23715;53.652;8.516;2022-08-19T17:42:27;11.48;;;10.85;;
37877;SDS011;23715;53.652;8.516;2022-08-19T17:47:28;10.65;;;9.85;;
37877;SDS011;23715;53.652;8.516;2022-08-19T17:52:28;10.70;;;9.93;;
37877;SDS011;23715;53.652;8.516;2022-08-19T17:57:29;10.63;;;9.93;;
37877;SDS011;23715;53.652;8.516;2022-08-19T18:02:29;9.50;;;8.80;;
37877;SDS011;23715;53.652;8.516;2022-08-19T18:07:29;12.15;;;11.25;;
37877;SDS011;23715;53.652;8.516;2022-08-19T18:12:31;11.07;;;10.17;;
37877;SDS011;23715;53.652;8.516;2022-08-19T18:17:33;9.73;;;9.03;;
37877;SDS011;23715;53.652;8.516;2022-08-19T18:22:39;10.23;;;9.27;;
37877;SDS011;23715;53.652;8.516;2022-08-19T18:27:41;9.38;;;8.60;;
37877;SDS011;23715;53.652;8.516;2022-08-19T18:32:42;13.08;;;11.68;;
37877;SDS011;23715;53.652;8.516;2022-08-19T18:37:44;7.75;;;7.05;;
37877;SDS011;23715;53.652;8.516;2022-08-19T18:42:45;7.10;;;6.53;;
37877;SDS011;23715;53.652;8.516;2022-08-19T18:48:03;7.37;;;6.75;;
37877;SDS011;23715;53.652;8.516;2022-08-19T18:53:22;7.78;;;7.12;;
37877;SDS011;23715;53.652;8.516;2022-08-19T18:58:24;6.87;;;6.27;;
37877;SDS011;23715;53.652;8.516;2022-08-19T19:03:28;6.93;;;6.33;;
37877;SDS011;23715;53.652;8.516;2022-08-19T19:08:29;7.33;;;6.72;;
37877;SDS011;23715;53.652;8.516;2022-08-19T19:13:30;6.95;;;6.35;;
37877;SDS011;23715;53.652;8.516;2022-08-19T19:18:31;6.67;;;6.00;;
37877;SDS011;23715;53.652;8.516;2022-08-19T19:23:31;13.35;;;8.23;;
37877;SDS011;23715;53.652;8.516;2022-08-19T19:28:32;15.10;;;12.58;;
37877;SDS011;23715;53.652;8.516;2022-08-19T19:33:34;11.67;;;10.57;;
37877;SDS011;23715;53.652;8.516;2022-08-19T19:38:34;9.30;;;8.48;;
37877;SDS011;23715;53.652;8.516;2022-08-19T19:43:35;7.35;;;6.65;;
37877;SDS011;23715;53.652;8.516;2022-08-19T19:48:35;7.20;;;6.60;;
37877;SDS011;23715;53.652;8.516;2022-08-19T19:53:36;8.55;;;7.85;;
37877;SDS011;23715;53.652;8.516;2022-08-19T19:58:36;6.83;;;6.25;;
37877;SDS011;23715;53.652;8.516;2022-08-19T20:03:43;8.90;;;8.27;;
37877;SDS011;23715;53.652;8.516;2022-08-19T20:08:39;9.88;;;9.15;;
37877;SDS011;23715;53.652;8.516;2022-08-19T20:13:59;11.53;;;10.72;;
37877;SDS011;23715;53.652;8.516;2022-08-19T20:19:01;12.25;;;11.48;;
37877;SDS011;23715;53.652;8.516;2022-08-19T20:24:03;12.95;;;11.95;;
37877;SDS011;23715;53.652;8.516;2022-08-19T20:29:03;14.00;;;13.00;;
37877;SDS011;23715;53.652;8.516;2022-08-19T20:34:05;15.50;;;14.30;;
37877;SDS011;23715;53.652;8.516;2022-08-19T20:39:06;15.03;;;13.75;;
37877;SDS011;23715;53.652;8.516;2022-08-19T20:44:08;15.85;;;14.50;;
37877;SDS011;23715;53.652;8.516;2022-08-19T20:49:08;15.28;;;14.18;;
37877;SDS011;23715;53.652;8.516;2022-08-19T20:54:09;15.28;;;14.20;;
37877;SDS011;23715;53.652;8.516;2022-08-19T21:04:09;22.45;;;20.85;;
37877;SDS011;23715;53.652;8.516;2022-08-19T21:09:09;28.25;;;26.15;;
37877;SDS011;23715;53.652;8.516;2022-08-19T21:14:11;29.12;;;26.93;;
37877;SDS011;23715;53.652;8.516;2022-08-19T21:19:18;34.27;;;31.57;;
37877;SDS011;23715;53.652;8.516;2022-08-19T21:24:18;34.98;;;32.17;;
37877;SDS011;23715;53.652;8.516;2022-08-19T21:29:19;31.65;;;29.05;;
37877;SDS011;23715;53.652;8.516;2022-08-19T21:34:20;28.95;;;26.62;;
37877;SDS011;23715;53.652;8.516;2022-08-19T21:39:20;30.85;;;28.45;;
37877;SDS011;23715;53.652;8.516;2022-08-19T21:44:21;32.10;;;29.27;;
37877;SDS011;23715;53.652;8.516;2022-08-19T21:49:21;35.83;;;32.78;;
37877;SDS011;23715;53.652;8.516;2022-08-19T21:54:22;33.60;;;30.80;;
37877;SDS011;23715;53.652;8.516;2022-08-19T21:59:22;36.80;;;33.67;;
37877;SDS011;23715;53.652;8.516;2022-08-19T22:04:22;37.33;;;33.98;;
37877;SDS011;23715;53.652;8.516;2022-08-19T22:09:23;36.65;;;33.15;;
37877;SDS011;23715;53.652;8.516;2022-08-19T22:14:24;35.13;;;31.68;;
37877;SDS011;23715;53.652;8.516;2022-08-19T22:19:24;33.18;;;30.17;;
37877;SDS011;23715;53.652;8.516;2022-08-19T22:24:26;28.87;;;26.57;;
37877;SDS011;23715;53.652;8.516;2022-08-19T22:29:27;25.23;;;23.27;;
37877;SDS011;23715;53.652;8.516;2022-08-19T22:34:28;24.20;;;22.27;;
37877;SDS011;23715;53.652;8.516;2022-08-19T22:39:28;24.02;;;22.52;;
37877;SDS011;23715;53.652;8.516;2022-08-19T22:44:29;23.80;;;22.40;;
37877;SDS011;23715;53.652;8.516;2022-08-19T22:49:29;25.32;;;23.50;;
37877;SDS011;23715;53.652;8.516;2022-08-19T22:54:30;24.82;;;23.15;;
37877;SDS011;23715;53.652;8.516;2022-08-19T22:59:31;26.27;;;24.25;;
37877;SDS011;23715;53.652;8.516;2022-08-19T23:04:31;24.97;;;23.30;;
37877;SDS011;23715;53.652;8.516;2022-08-19T23:09:33;26.23;;;24.17;;
37877;SDS011;23715;53.652;8.516;2022-08-19T23:14:33;25.45;;;23.25;;
37877;SDS011;23715;53.652;8.516;2022-08-19T23:19:35;23.38;;;21.87;;
37877;SDS011;23715;53.652;8.516;2022-08-19T23:24:35;23.97;;;22.37;;
37877;SDS011;23715;53.652;8.516;2022-08-19T23:29:36;22.82;;;21.42;;
37877;SDS011;23715;53.652;8.516;2022-08-19T23:34:55;23.45;;;21.95;;
37877;SDS011;23715;53.652;8.516;2022-08-19T23:39:55;24.63;;;22.90;;
37877;SDS011;23715;53.652;8.516;2022-08-19T23:45:06;23.60;;;22.00;;
37877;SDS011;23715;53.652;8.516;2022-08-19T23:50:06;22.20;;;20.75;;
37877;SDS011;23715;53.652;8.516;2022-08-19T23:55:08;24.00;;;22.58;;
